sensor_id;sensor_type;location;lat;lon;timestamp;P1;durP1;ratioP1;P2;durP2;ratioP2
75358;SDS011;64046;51.978;5.934;2023-11-21T00:01:49;19.75;;;9.63;;
75358;SDS011;64046;51.978;5.934;2023-11-21T00:04:18;22.95;;;10.55;;
75358;SDS011;64046;51.978;5.934;2023-11-21T00:06:50;19.13;;;10.10;;
75358;SDS011;64046;51.978;5.934;2023-11-21T00:09:19;19.33;;;10.02;;
75358;SDS011;64046;51.978;5.934;2023-11-21T00:11:55;18.13;;;10.27;;
75358;SDS011;64046;51.978;5.934;2023-11-21T00:14:25;21.77;;;9.88;;
75358;SDS011;64046;51.978;5.934;2023-11-21T00:16:56;27.73;;;11.50;;
75358;SDS011;64046;51.978;5.934;2023-11-21T00:19:25;20.80;;;11.80;;
75358;SDS011;64046;51.978;5.934;2023-11-21T00:21:59;18.55;;;10.25;;
75358;SDS011;64046;51.978;5.934;2023-11-21T00:24:28;20.15;;;9.75;;
75358;SDS011;64046;51.978;5.934;2023-11-21T00:27:05;18.17;;;10.23;;
75358;SDS011;64046;51.978;5.934;2023-11-21T00:29:37;19.88;;;9.50;;
75358;SDS011;64046;51.978;5.934;2023-11-21T00:32:08;19.73;;;10.57;;
75358;SDS011;64046;51.978;5.934;2023-11-21T00:34:39;20.77;;;10.75;;
75358;SDS011;64046;51.978;5.934;2023-11-21T00:37:09;16.17;;;9.95;;
75358;SDS011;64046;51.978;5.934;2023-11-21T00:39:39;20.85;;;10.70;;
75358;SDS011;64046;51.978;5.934;2023-11-21T00:42:17;20.55;;;9.90;;
75358;SDS011;64046;51.978;5.934;2023-11-21T00:44:49;17.13;;;9.40;;
75358;SDS011;64046;51.978;5.934;2023-11-21T00:47:20;18.48;;;10.10;;
75358;SDS011;64046;51.978;5.934;2023-11-21T00:49:52;17.52;;;9.63;;
75358;SDS011;64046;51.978;5.934;2023-11-21T00:52:24;16.33;;;9.15;;
75358;SDS011;64046;51.978;5.934;2023-11-21T00:54:54;19.95;;;10.57;;
75358;SDS011;64046;51.978;5.934;2023-11-21T00:57:34;22.70;;;10.75;;
75358;SDS011;64046;51.978;5.934;2023-11-21T01:00:04;26.35;;;10.70;;
75358;SDS011;64046;51.978;5.934;2023-11-21T01:02:41;20.73;;;11.45;;
75358;SDS011;64046;51.978;5.934;2023-11-21T01:05:14;20.05;;;11.73;;
75358;SDS011;64046;51.978;5.934;2023-11-21T01:07:47;22.30;;;11.40;;
75358;SDS011;64046;51.978;5.934;2023-11-21T01:10:17;26.45;;;13.52;;
75358;SDS011;64046;51.978;5.934;2023-11-21T01:12:51;19.40;;;10.75;;
75358;SDS011;64046;51.978;5.934;2023-11-21T01:15:20;23.13;;;12.88;;
75358;SDS011;64046;51.978;5.934;2023-11-21T01:17:54;27.08;;;12.15;;
75358;SDS011;64046;51.978;5.934;2023-11-21T01:20:24;26.83;;;13.23;;
75358;SDS011;64046;51.978;5.934;2023-11-21T01:22:56;23.42;;;11.68;;
75358;SDS011;64046;51.978;5.934;2023-11-21T01:25:27;25.85;;;12.60;;
75358;SDS011;64046;51.978;5.934;2023-11-21T01:28:04;27.90;;;12.85;;
75358;SDS011;64046;51.978;5.934;2023-11-21T01:30:34;29.45;;;14.15;;
75358;SDS011;64046;51.978;5.934;2023-11-21T01:33:03;23.23;;;12.10;;
75358;SDS011;64046;51.978;5.934;2023-11-21T01:35:34;25.15;;;12.88;;
75358;SDS011;64046;51.978;5.934;2023-11-21T01:38:06;28.30;;;11.95;;
75358;SDS011;64046;51.978;5.934;2023-11-21T01:40:36;27.80;;;13.15;;
75358;SDS011;64046;51.978;5.934;2023-11-21T01:43:11;24.27;;;12.27;;
75358;SDS011;64046;51.978;5.934;2023-11-21T01:45:42;31.35;;;14.43;;
75358;SDS011;64046;51.978;5.934;2023-11-21T01:48:12;30.48;;;14.10;;
75358;SDS011;64046;51.978;5.934;2023-11-21T01:50:42;28.67;;;13.13;;
75358;SDS011;64046;51.978;5.934;2023-11-21T01:53:17;27.38;;;13.40;;
75358;SDS011;64046;51.978;5.934;2023-11-21T01:55:49;23.95;;;12.27;;
75358;SDS011;64046;51.978;5.934;2023-11-21T01:58:23;28.88;;;13.70;;
75358;SDS011;64046;51.978;5.934;2023-11-21T02:00:57;32.05;;;13.32;;
75358;SDS011;64046;51.978;5.934;2023-11-21T02:03:31;27.63;;;13.18;;
75358;SDS011;64046;51.978;5.934;2023-11-21T02:06:06;31.10;;;14.15;;
75358;SDS011;64046;51.978;5.934;2023-11-21T02:08:38;26.13;;;12.50;;
75358;SDS011;64046;51.978;5.934;2023-11-21T02:11:11;33.15;;;15.05;;
75358;SDS011;64046;51.978;5.934;2023-11-21T02:13:45;27.20;;;12.45;;
75358;SDS011;64046;51.978;5.934;2023-11-21T02:16:19;30.65;;;14.23;;
75358;SDS011;64046;51.978;5.934;2023-11-21T02:18:53;31.92;;;13.77;;
75358;SDS011;64046;51.978;5.934;2023-11-21T02:21:23;31.58;;;13.95;;
75358;SDS011;64046;51.978;5.934;2023-11-21T02:23:58;29.70;;;13.18;;
75358;SDS011;64046;51.978;5.934;2023-11-21T02:26:28;31.92;;;15.05;;
75358;SDS011;64046;51.978;5.934;2023-11-21T02:29:09;30.13;;;14.70;;
75358;SDS011;64046;51.978;5.934;2023-11-21T02:31:48;30.30;;;13.95;;
75358;SDS011;64046;51.978;5.934;2023-11-21T02:34:28;26.98;;;14.15;;
75358;SDS011;64046;51.978;5.934;2023-11-21T02:36:58;33.35;;;13.55;;
75358;SDS011;64046;51.978;5.934;2023-11-21T02:39:31;33.67;;;15.43;;
75358;SDS011;64046;51.978;5.934;2023-11-21T02:42:04;30.02;;;14.05;;
75358;SDS011;64046;51.978;5.934;2023-11-21T02:44:36;29.58;;;14.27;;
75358;SDS011;64046;51.978;5.934;2023-11-21T02:47:07;29.15;;;13.93;;
75358;SDS011;64046;51.978;5.934;2023-11-21T02:49:39;35.63;;;13.48;;
75358;SDS011;64046;51.978;5.934;2023-11-21T02:52:09;26.17;;;13.52;;
75358;SDS011;64046;51.978;5.934;2023-11-21T02:54:48;29.70;;;13.35;;
75358;SDS011;64046;51.978;5.934;2023-11-21T02:57:21;33.33;;;14.32;;
75358;SDS011;64046;51.978;5.934;2023-11-21T02:59:51;30.42;;;14.50;;
75358;SDS011;64046;51.978;5.934;2023-11-21T03:02:20;28.95;;;13.38;;
75358;SDS011;64046;51.978;5.934;2023-11-21T03:04:50;30.85;;;15.85;;
75358;SDS011;64046;51.978;5.934;2023-11-21T03:07:22;32.42;;;15.77;;
75358;SDS011;64046;51.978;5.934;2023-11-21T03:09:55;34.67;;;15.82;;
75358;SDS011;64046;51.978;5.934;2023-11-21T03:12:26;28.20;;;13.60;;
75358;SDS011;64046;51.978;5.934;2023-11-21T03:14:58;26.90;;;13.93;;
75358;SDS011;64046;51.978;5.934;2023-11-21T03:17:29;33.55;;;14.38;;
75358;SDS011;64046;51.978;5.934;2023-11-21T03:20:03;24.42;;;12.95;;
75358;SDS011;64046;51.978;5.934;2023-11-21T03:22:37;28.00;;;14.38;;
75358;SDS011;64046;51.978;5.934;2023-11-21T03:25:12;22.92;;;12.30;;
75358;SDS011;64046;51.978;5.934;2023-11-21T03:27:49;26.40;;;12.35;;
75358;SDS011;64046;51.978;5.934;2023-11-21T03:30:19;22.73;;;11.65;;
75358;SDS011;64046;51.978;5.934;2023-11-21T03:32:49;25.25;;;12.13;;
75358;SDS011;64046;51.978;5.934;2023-11-21T03:35:20;21.45;;;12.00;;
75358;SDS011;64046;51.978;5.934;2023-11-21T03:37:52;31.15;;;17.02;;
75358;SDS011;64046;51.978;5.934;2023-11-21T03:40:26;32.67;;;16.33;;
75358;SDS011;64046;51.978;5.934;2023-11-21T03:42:58;22.52;;;11.38;;
75358;SDS011;64046;51.978;5.934;2023-11-21T03:45:27;26.10;;;14.02;;
75358;SDS011;64046;51.978;5.934;2023-11-21T03:47:57;28.60;;;13.50;;
75358;SDS011;64046;51.978;5.934;2023-11-21T03:50:29;29.25;;;15.05;;
75358;SDS011;64046;51.978;5.934;2023-11-21T03:53:02;22.52;;;11.45;;
75358;SDS011;64046;51.978;5.934;2023-11-21T03:55:35;22.15;;;12.55;;
75358;SDS011;64046;51.978;5.934;2023-11-21T03:58:02;21.75;;;11.70;;
75358;SDS011;64046;51.978;5.934;2023-11-21T04:00:34;21.42;;;11.27;;
75358;SDS011;64046;51.978;5.934;2023-11-21T04:03:05;19.20;;;11.05;;
75358;SDS011;64046;51.978;5.934;2023-11-21T04:05:37;20.10;;;11.15;;
75358;SDS011;64046;51.978;5.934;2023-11-21T04:08:10;23.65;;;11.90;;
75358;SDS011;64046;51.978;5.934;2023-11-21T04:10:45;23.15;;;11.60;;
75358;SDS011;64046;51.978;5.934;2023-11-21T04:13:16;24.77;;;12.10;;
75358;SDS011;64046;51.978;5.934;2023-11-21T04:15:46;29.73;;;14.35;;
75358;SDS011;64046;51.978;5.934;2023-11-21T04:18:16;25.52;;;13.40;;
75358;SDS011;64046;51.978;5.934;2023-11-21T04:20:49;24.00;;;13.05;;
75358;SDS011;64046;51.978;5.934;2023-11-21T04:23:22;26.75;;;13.98;;
75358;SDS011;64046;51.978;5.934;2023-11-21T04:25:56;25.30;;;12.57;;
75358;SDS011;64046;51.978;5.934;2023-11-21T04:28:38;27.40;;;14.07;;
75358;SDS011;64046;51.978;5.934;2023-11-21T04:31:12;23.08;;;11.55;;
75358;SDS011;64046;51.978;5.934;2023-11-21T04:33:43;21.48;;;12.15;;
75358;SDS011;64046;51.978;5.934;2023-11-21T04:36:13;25.63;;;13.50;;
75358;SDS011;64046;51.978;5.934;2023-11-21T04:38:42;23.80;;;12.10;;
75358;SDS011;64046;51.978;5.934;2023-11-21T04:41:16;17.50;;;10.25;;
75358;SDS011;64046;51.978;5.934;2023-11-21T04:43:53;22.30;;;11.75;;
75358;SDS011;64046;51.978;5.934;2023-11-21T04:46:35;28.58;;;13.70;;
75358;SDS011;64046;51.978;5.934;2023-11-21T04:49:07;20.85;;;11.40;;
75358;SDS011;64046;51.978;5.934;2023-11-21T04:51:37;18.50;;;10.55;;
75358;SDS011;64046;51.978;5.934;2023-11-21T04:54:07;27.58;;;14.93;;
75358;SDS011;64046;51.978;5.934;2023-11-21T04:56:39;20.52;;;11.35;;
75358;SDS011;64046;51.978;5.934;2023-11-21T04:59:13;21.25;;;10.50;;
75358;SDS011;64046;51.978;5.934;2023-11-21T05:01:53;19.92;;;11.90;;
75358;SDS011;64046;51.978;5.934;2023-11-21T05:04:23;25.00;;;13.20;;
75358;SDS011;64046;51.978;5.934;2023-11-21T05:07:00;20.48;;;11.75;;
75358;SDS011;64046;51.978;5.934;2023-11-21T05:09:31;19.05;;;9.73;;
75358;SDS011;64046;51.978;5.934;2023-11-21T05:12:06;17.40;;;10.02;;
75358;SDS011;64046;51.978;5.934;2023-11-21T05:14:42;22.00;;;11.75;;
75358;SDS011;64046;51.978;5.934;2023-11-21T05:17:14;18.02;;;9.50;;
75358;SDS011;64046;51.978;5.934;2023-11-21T05:19:44;15.77;;;9.88;;
75358;SDS011;64046;51.978;5.934;2023-11-21T05:22:16;15.35;;;8.63;;
75358;SDS011;64046;51.978;5.934;2023-11-21T05:24:48;15.38;;;8.73;;
75358;SDS011;64046;51.978;5.934;2023-11-21T05:27:21;16.17;;;9.05;;
75358;SDS011;64046;51.978;5.934;2023-11-21T05:29:53;16.38;;;9.85;;
75358;SDS011;64046;51.978;5.934;2023-11-21T05:32:25;15.52;;;9.98;;
75358;SDS011;64046;51.978;5.934;2023-11-21T05:34:57;16.85;;;9.95;;
75358;SDS011;64046;51.978;5.934;2023-11-21T05:37:28;13.95;;;8.27;;
75358;SDS011;64046;51.978;5.934;2023-11-21T05:40:02;16.15;;;9.38;;
75358;SDS011;64046;51.978;5.934;2023-11-21T05:42:45;14.30;;;7.78;;
75358;SDS011;64046;51.978;5.934;2023-11-21T05:45:17;13.23;;;8.10;;
75358;SDS011;64046;51.978;5.934;2023-11-21T05:47:53;13.63;;;7.47;;
75358;SDS011;64046;51.978;5.934;2023-11-21T05:50:22;12.20;;;7.47;;
75358;SDS011;64046;51.978;5.934;2023-11-21T05:52:53;13.20;;;7.97;;
75358;SDS011;64046;51.978;5.934;2023-11-21T05:55:25;14.35;;;9.32;;
75358;SDS011;64046;51.978;5.934;2023-11-21T05:57:59;18.73;;;11.18;;
75358;SDS011;64046;51.978;5.934;2023-11-21T06:00:38;11.00;;;7.82;;
75358;SDS011;64046;51.978;5.934;2023-11-21T06:03:11;11.20;;;7.28;;
75358;SDS011;64046;51.978;5.934;2023-11-21T06:05:51;12.45;;;7.70;;
75358;SDS011;64046;51.978;5.934;2023-11-21T06:08:20;16.83;;;9.90;;
75358;SDS011;64046;51.978;5.934;2023-11-21T06:10:52;14.10;;;8.35;;
75358;SDS011;64046;51.978;5.934;2023-11-21T06:13:29;13.55;;;8.55;;
75358;SDS011;64046;51.978;5.934;2023-11-21T06:16:03;19.33;;;11.82;;
75358;SDS011;64046;51.978;5.934;2023-11-21T06:18:35;14.05;;;8.60;;
75358;SDS011;64046;51.978;5.934;2023-11-21T06:21:09;15.88;;;8.68;;
75358;SDS011;64046;51.978;5.934;2023-11-21T06:23:42;15.45;;;8.93;;
75358;SDS011;64046;51.978;5.934;2023-11-21T06:26:12;15.15;;;9.68;;
75358;SDS011;64046;51.978;5.934;2023-11-21T06:28:47;17.65;;;9.00;;
75358;SDS011;64046;51.978;5.934;2023-11-21T06:31:17;16.38;;;10.13;;
75358;SDS011;64046;51.978;5.934;2023-11-21T06:33:49;17.02;;;9.20;;
75358;SDS011;64046;51.978;5.934;2023-11-21T06:36:19;14.18;;;8.85;;
75358;SDS011;64046;51.978;5.934;2023-11-21T06:38:51;17.80;;;8.85;;
75358;SDS011;64046;51.978;5.934;2023-11-21T06:41:21;19.95;;;10.27;;
75358;SDS011;64046;51.978;5.934;2023-11-21T06:43:53;15.15;;;9.68;;
75358;SDS011;64046;51.978;5.934;2023-11-21T06:46:27;12.77;;;8.27;;
75358;SDS011;64046;51.978;5.934;2023-11-21T06:48:59;17.60;;;9.82;;
75358;SDS011;64046;51.978;5.934;2023-11-21T06:51:29;16.20;;;9.85;;
75358;SDS011;64046;51.978;5.934;2023-11-21T06:53:58;16.02;;;9.35;;
75358;SDS011;64046;51.978;5.934;2023-11-21T06:56:29;18.98;;;10.27;;
75358;SDS011;64046;51.978;5.934;2023-11-21T06:59:03;13.60;;;8.73;;
75358;SDS011;64046;51.978;5.934;2023-11-21T07:01:37;15.02;;;8.48;;
75358;SDS011;64046;51.978;5.934;2023-11-21T07:04:10;15.30;;;8.55;;
75358;SDS011;64046;51.978;5.934;2023-11-21T07:06:41;20.75;;;10.10;;
75358;SDS011;64046;51.978;5.934;2023-11-21T07:09:19;13.95;;;9.20;;
75358;SDS011;64046;51.978;5.934;2023-11-21T07:11:52;14.52;;;8.95;;
75358;SDS011;64046;51.978;5.934;2023-11-21T07:14:25;17.98;;;9.93;;
75358;SDS011;64046;51.978;5.934;2023-11-21T07:16:55;21.63;;;11.57;;
75358;SDS011;64046;51.978;5.934;2023-11-21T07:19:25;14.05;;;8.43;;
75358;SDS011;64046;51.978;5.934;2023-11-21T07:21:57;15.25;;;9.45;;
75358;SDS011;64046;51.978;5.934;2023-11-21T07:24:28;21.13;;;10.02;;
75358;SDS011;64046;51.978;5.934;2023-11-21T07:26:59;15.25;;;9.23;;
75358;SDS011;64046;51.978;5.934;2023-11-21T07:29:33;15.32;;;9.88;;
75358;SDS011;64046;51.978;5.934;2023-11-21T07:32:11;19.25;;;9.63;;
75358;SDS011;64046;51.978;5.934;2023-11-21T07:34:46;26.52;;;13.00;;
75358;SDS011;64046;51.978;5.934;2023-11-21T07:37:20;20.25;;;11.15;;
75358;SDS011;64046;51.978;5.934;2023-11-21T07:39:51;26.73;;;14.23;;
75358;SDS011;64046;51.978;5.934;2023-11-21T07:42:26;20.95;;;10.55;;
75358;SDS011;64046;51.978;5.934;2023-11-21T07:44:58;19.30;;;11.07;;
75358;SDS011;64046;51.978;5.934;2023-11-21T07:47:29;21.80;;;11.52;;
75358;SDS011;64046;51.978;5.934;2023-11-21T07:50:05;22.00;;;11.35;;
75358;SDS011;64046;51.978;5.934;2023-11-21T07:52:39;17.92;;;10.35;;
75358;SDS011;64046;51.978;5.934;2023-11-21T07:55:21;27.05;;;12.75;;
75358;SDS011;64046;51.978;5.934;2023-11-21T07:57:59;21.02;;;12.50;;
75358;SDS011;64046;51.978;5.934;2023-11-21T08:00:33;19.48;;;10.75;;
75358;SDS011;64046;51.978;5.934;2023-11-21T08:03:05;23.25;;;12.40;;
75358;SDS011;64046;51.978;5.934;2023-11-21T08:05:35;29.38;;;13.02;;
75358;SDS011;64046;51.978;5.934;2023-11-21T08:08:05;28.67;;;13.02;;
75358;SDS011;64046;51.978;5.934;2023-11-21T08:10:34;23.88;;;12.77;;
75358;SDS011;64046;51.978;5.934;2023-11-21T08:13:10;22.80;;;11.02;;
75358;SDS011;64046;51.978;5.934;2023-11-21T08:15:45;22.38;;;11.45;;
75358;SDS011;64046;51.978;5.934;2023-11-21T08:18:18;20.67;;;10.73;;
75358;SDS011;64046;51.978;5.934;2023-11-21T08:20:52;21.77;;;12.65;;
75358;SDS011;64046;51.978;5.934;2023-11-21T08:23:26;23.38;;;11.60;;
75358;SDS011;64046;51.978;5.934;2023-11-21T08:25:55;19.40;;;10.88;;
75358;SDS011;64046;51.978;5.934;2023-11-21T08:28:30;25.10;;;11.40;;
75358;SDS011;64046;51.978;5.934;2023-11-21T08:31:05;22.20;;;12.45;;
75358;SDS011;64046;51.978;5.934;2023-11-21T08:33:37;20.60;;;11.55;;
75358;SDS011;64046;51.978;5.934;2023-11-21T08:36:09;25.23;;;12.13;;
75358;SDS011;64046;51.978;5.934;2023-11-21T08:38:41;20.33;;;10.88;;
75358;SDS011;64046;51.978;5.934;2023-11-21T08:41:11;22.45;;;11.82;;
75358;SDS011;64046;51.978;5.934;2023-11-21T08:43:42;19.55;;;11.10;;
75358;SDS011;64046;51.978;5.934;2023-11-21T08:46:16;31.48;;;15.75;;
75358;SDS011;64046;51.978;5.934;2023-11-21T08:48:54;29.70;;;14.63;;
75358;SDS011;64046;51.978;5.934;2023-11-21T08:51:25;20.80;;;11.32;;
75358;SDS011;64046;51.978;5.934;2023-11-21T08:53:58;23.05;;;12.68;;
75358;SDS011;64046;51.978;5.934;2023-11-21T08:56:30;32.08;;;14.13;;
75358;SDS011;64046;51.978;5.934;2023-11-21T08:58:59;27.52;;;14.48;;
75358;SDS011;64046;51.978;5.934;2023-11-21T09:01:34;31.05;;;16.45;;
75358;SDS011;64046;51.978;5.934;2023-11-21T09:04:09;19.02;;;12.05;;
75358;SDS011;64046;51.978;5.934;2023-11-21T09:06:39;19.90;;;11.43;;
75358;SDS011;64046;51.978;5.934;2023-11-21T09:09:11;27.77;;;13.43;;
75358;SDS011;64046;51.978;5.934;2023-11-21T09:11:43;26.20;;;12.95;;
75358;SDS011;64046;51.978;5.934;2023-11-21T09:14:15;25.70;;;12.32;;
75358;SDS011;64046;51.978;5.934;2023-11-21T09:16:48;20.65;;;10.82;;
75358;SDS011;64046;51.978;5.934;2023-11-21T09:19:18;28.15;;;14.52;;
75358;SDS011;64046;51.978;5.934;2023-11-21T09:21:50;24.05;;;12.70;;
75358;SDS011;64046;51.978;5.934;2023-11-21T09:24:24;26.10;;;14.30;;
75358;SDS011;64046;51.978;5.934;2023-11-21T09:26:55;26.83;;;13.07;;
75358;SDS011;64046;51.978;5.934;2023-11-21T09:29:26;21.98;;;12.43;;
75358;SDS011;64046;51.978;5.934;2023-11-21T09:32:03;25.42;;;12.95;;
75358;SDS011;64046;51.978;5.934;2023-11-21T09:34:37;23.02;;;12.75;;
75358;SDS011;64046;51.978;5.934;2023-11-21T09:37:18;24.70;;;13.15;;
75358;SDS011;64046;51.978;5.934;2023-11-21T09:39:53;22.35;;;12.05;;
75358;SDS011;64046;51.978;5.934;2023-11-21T09:42:30;24.23;;;12.32;;
75358;SDS011;64046;51.978;5.934;2023-11-21T09:45:06;18.73;;;12.02;;
75358;SDS011;64046;51.978;5.934;2023-11-21T09:47:47;19.88;;;11.27;;
75358;SDS011;64046;51.978;5.934;2023-11-21T09:50:21;25.50;;;13.85;;
75358;SDS011;64046;51.978;5.934;2023-11-21T09:52:57;26.92;;;14.70;;
75358;SDS011;64046;51.978;5.934;2023-11-21T09:55:38;24.38;;;12.35;;
75358;SDS011;64046;51.978;5.934;2023-11-21T09:58:18;27.90;;;13.70;;
75358;SDS011;64046;51.978;5.934;2023-11-21T10:00:52;21.33;;;12.57;;
75358;SDS011;64046;51.978;5.934;2023-11-21T10:03:32;32.08;;;15.40;;
75358;SDS011;64046;51.978;5.934;2023-11-21T10:06:05;23.40;;;13.02;;
75358;SDS011;64046;51.978;5.934;2023-11-21T10:08:37;23.13;;;13.18;;
75358;SDS011;64046;51.978;5.934;2023-11-21T10:11:12;19.70;;;12.30;;
75358;SDS011;64046;51.978;5.934;2023-11-21T10:13:47;24.48;;;13.10;;
75358;SDS011;64046;51.978;5.934;2023-11-21T10:16:25;30.98;;;15.65;;
75358;SDS011;64046;51.978;5.934;2023-11-21T10:19:05;24.42;;;12.50;;
75358;SDS011;64046;51.978;5.934;2023-11-21T10:21:49;24.80;;;12.20;;
75358;SDS011;64046;51.978;5.934;2023-11-21T10:24:20;23.60;;;12.55;;
75358;SDS011;64046;51.978;5.934;2023-11-21T10:26:54;19.00;;;11.75;;
75358;SDS011;64046;51.978;5.934;2023-11-21T10:29:28;21.02;;;11.52;;
75358;SDS011;64046;51.978;5.934;2023-11-21T10:32:02;17.42;;;11.23;;
75358;SDS011;64046;51.978;5.934;2023-11-21T10:34:35;18.63;;;10.73;;
75358;SDS011;64046;51.978;5.934;2023-11-21T10:37:10;16.30;;;9.10;;
75358;SDS011;64046;51.978;5.934;2023-11-21T10:39:41;15.75;;;9.82;;
75358;SDS011;64046;51.978;5.934;2023-11-21T10:42:11;17.77;;;10.00;;
75358;SDS011;64046;51.978;5.934;2023-11-21T10:44:47;15.32;;;9.52;;
75358;SDS011;64046;51.978;5.934;2023-11-21T10:47:21;17.52;;;9.45;;
75358;SDS011;64046;51.978;5.934;2023-11-21T10:49:55;17.23;;;10.02;;
75358;SDS011;64046;51.978;5.934;2023-11-21T10:52:26;16.27;;;10.43;;
75358;SDS011;64046;51.978;5.934;2023-11-21T10:55:02;17.83;;;10.50;;
75358;SDS011;64046;51.978;5.934;2023-11-21T10:57:52;17.77;;;10.15;;
75358;SDS011;64046;51.978;5.934;2023-11-21T11:00:31;16.45;;;9.32;;
75358;SDS011;64046;51.978;5.934;2023-11-21T11:03:09;16.63;;;9.73;;
75358;SDS011;64046;51.978;5.934;2023-11-21T11:05:45;15.98;;;8.68;;
75358;SDS011;64046;51.978;5.934;2023-11-21T11:08:17;16.25;;;10.15;;
75358;SDS011;64046;51.978;5.934;2023-11-21T11:10:52;15.07;;;9.18;;
75358;SDS011;64046;51.978;5.934;2023-11-21T11:13:22;13.98;;;7.95;;
75358;SDS011;64046;51.978;5.934;2023-11-21T11:15:55;12.68;;;7.10;;
75358;SDS011;64046;51.978;5.934;2023-11-21T11:18:33;12.32;;;8.30;;
75358;SDS011;64046;51.978;5.934;2023-11-21T11:21:11;20.80;;;10.68;;
75358;SDS011;64046;51.978;5.934;2023-11-21T11:23:58;15.32;;;9.07;;
75358;SDS011;64046;51.978;5.934;2023-11-21T11:26:42;24.88;;;13.07;;
75358;SDS011;64046;51.978;5.934;2023-11-21T11:29:23;21.92;;;12.20;;
75358;SDS011;64046;51.978;5.934;2023-11-21T11:32:07;19.38;;;11.20;;
75358;SDS011;64046;51.978;5.934;2023-11-21T11:34:50;15.38;;;9.50;;
75358;SDS011;64046;51.978;5.934;2023-11-21T11:37:35;16.85;;;9.80;;
75358;SDS011;64046;51.978;5.934;2023-11-21T11:40:06;14.48;;;8.15;;
75358;SDS011;64046;51.978;5.934;2023-11-21T11:42:38;16.17;;;9.82;;
75358;SDS011;64046;51.978;5.934;2023-11-21T11:45:23;15.85;;;9.07;;
75358;SDS011;64046;51.978;5.934;2023-11-21T11:48:05;12.77;;;8.07;;
75358;SDS011;64046;51.978;5.934;2023-11-21T11:50:42;15.27;;;9.52;;
75358;SDS011;64046;51.978;5.934;2023-11-21T11:53:28;14.15;;;9.05;;
75358;SDS011;64046;51.978;5.934;2023-11-21T11:58:57;11.07;;;6.32;;
75358;SDS011;64046;51.978;5.934;2023-11-21T12:01:33;12.43;;;8.00;;
75358;SDS011;64046;51.978;5.934;2023-11-21T12:07:17;10.23;;;6.80;;
75358;SDS011;64046;51.978;5.934;2023-11-21T12:09:50;10.25;;;6.30;;
75358;SDS011;64046;51.978;5.934;2023-11-21T12:12:21;10.70;;;6.70;;
75358;SDS011;64046;51.978;5.934;2023-11-21T12:14:52;14.98;;;7.30;;
75358;SDS011;64046;51.978;5.934;2023-11-21T12:17:22;10.50;;;6.47;;
75358;SDS011;64046;51.978;5.934;2023-11-21T12:20:00;9.40;;;6.20;;
75358;SDS011;64046;51.978;5.934;2023-11-21T12:22:41;9.95;;;6.50;;
75358;SDS011;64046;51.978;5.934;2023-11-21T12:25:18;9.77;;;6.10;;
75358;SDS011;64046;51.978;5.934;2023-11-21T12:27:50;15.00;;;7.90;;
75358;SDS011;64046;51.978;5.934;2023-11-21T12:30:23;12.52;;;7.72;;
75358;SDS011;64046;51.978;5.934;2023-11-21T12:32:58;13.27;;;8.35;;
75358;SDS011;64046;51.978;5.934;2023-11-21T12:35:35;14.65;;;8.63;;
75358;SDS011;64046;51.978;5.934;2023-11-21T12:38:06;11.75;;;7.47;;
75358;SDS011;64046;51.978;5.934;2023-11-21T12:40:42;9.40;;;6.10;;
75358;SDS011;64046;51.978;5.934;2023-11-21T12:43:20;10.70;;;6.78;;
75358;SDS011;64046;51.978;5.934;2023-11-21T12:45:52;11.60;;;7.70;;
75358;SDS011;64046;51.978;5.934;2023-11-21T12:48:33;15.30;;;8.85;;
75358;SDS011;64046;51.978;5.934;2023-11-21T12:51:04;15.02;;;8.40;;
75358;SDS011;64046;51.978;5.934;2023-11-21T12:53:35;14.15;;;8.52;;
75358;SDS011;64046;51.978;5.934;2023-11-21T12:56:10;16.40;;;9.98;;
75358;SDS011;64046;51.978;5.934;2023-11-21T12:58:45;17.65;;;10.05;;
75358;SDS011;64046;51.978;5.934;2023-11-21T13:01:17;18.15;;;9.88;;
75358;SDS011;64046;51.978;5.934;2023-11-21T13:03:51;17.95;;;10.30;;
75358;SDS011;64046;51.978;5.934;2023-11-21T13:06:21;18.45;;;10.32;;
75358;SDS011;64046;51.978;5.934;2023-11-21T13:08:54;19.05;;;10.50;;
75358;SDS011;64046;51.978;5.934;2023-11-21T13:11:27;16.73;;;9.95;;
75358;SDS011;64046;51.978;5.934;2023-11-21T13:13:59;19.88;;;12.05;;
75358;SDS011;64046;51.978;5.934;2023-11-21T13:16:29;22.85;;;12.82;;
75358;SDS011;64046;51.978;5.934;2023-11-21T13:19:03;27.08;;;14.65;;
75358;SDS011;64046;51.978;5.934;2023-11-21T13:21:37;24.83;;;14.10;;
75358;SDS011;64046;51.978;5.934;2023-11-21T13:24:07;19.17;;;12.00;;
75358;SDS011;64046;51.978;5.934;2023-11-21T13:26:40;22.48;;;12.85;;
75358;SDS011;64046;51.978;5.934;2023-11-21T13:29:12;19.67;;;11.90;;
75358;SDS011;64046;51.978;5.934;2023-11-21T13:31:42;22.75;;;12.55;;
75358;SDS011;64046;51.978;5.934;2023-11-21T13:34:21;24.33;;;13.02;;
75358;SDS011;64046;51.978;5.934;2023-11-21T13:36:57;17.95;;;11.00;;
75358;SDS011;64046;51.978;5.934;2023-11-21T13:39:32;18.08;;;9.98;;
75358;SDS011;64046;51.978;5.934;2023-11-21T13:42:14;18.50;;;11.38;;
75358;SDS011;64046;51.978;5.934;2023-11-21T13:44:55;15.70;;;9.20;;
75358;SDS011;64046;51.978;5.934;2023-11-21T13:47:32;17.23;;;10.30;;
75358;SDS011;64046;51.978;5.934;2023-11-21T13:50:04;18.83;;;10.07;;
75358;SDS011;64046;51.978;5.934;2023-11-21T13:52:43;13.77;;;8.48;;
75358;SDS011;64046;51.978;5.934;2023-11-21T13:55:15;17.17;;;9.50;;
75358;SDS011;64046;51.978;5.934;2023-11-21T13:57:48;17.02;;;9.98;;
75358;SDS011;64046;51.978;5.934;2023-11-21T14:00:19;17.13;;;10.23;;
75358;SDS011;64046;51.978;5.934;2023-11-21T14:03:08;19.42;;;10.10;;
75358;SDS011;64046;51.978;5.934;2023-11-21T14:05:46;18.77;;;9.80;;
75358;SDS011;64046;51.978;5.934;2023-11-21T14:08:18;16.05;;;7.72;;
75358;SDS011;64046;51.978;5.934;2023-11-21T14:10:55;13.93;;;7.55;;
75358;SDS011;64046;51.978;5.934;2023-11-21T14:13:30;14.98;;;7.18;;
75358;SDS011;64046;51.978;5.934;2023-11-21T14:16:01;10.25;;;5.43;;
75358;SDS011;64046;51.978;5.934;2023-11-21T14:18:37;12.27;;;6.30;;
75358;SDS011;64046;51.978;5.934;2023-11-21T14:21:18;11.32;;;6.00;;
75358;SDS011;64046;51.978;5.934;2023-11-21T14:23:47;11.40;;;6.07;;
75358;SDS011;64046;51.978;5.934;2023-11-21T14:26:20;11.15;;;6.80;;
75358;SDS011;64046;51.978;5.934;2023-11-21T14:28:54;13.40;;;7.88;;
75358;SDS011;64046;51.978;5.934;2023-11-21T14:31:25;12.93;;;7.65;;
75358;SDS011;64046;51.978;5.934;2023-11-21T14:33:56;12.70;;;7.38;;
75358;SDS011;64046;51.978;5.934;2023-11-21T14:36:28;14.18;;;8.35;;
75358;SDS011;64046;51.978;5.934;2023-11-21T14:38:59;15.18;;;9.40;;
75358;SDS011;64046;51.978;5.934;2023-11-21T14:41:37;13.80;;;8.15;;
75358;SDS011;64046;51.978;5.934;2023-11-21T14:44:13;12.63;;;7.93;;
75358;SDS011;64046;51.978;5.934;2023-11-21T14:46:45;12.52;;;7.38;;
75358;SDS011;64046;51.978;5.934;2023-11-21T14:49:23;16.13;;;7.95;;
75358;SDS011;64046;51.978;5.934;2023-11-21T14:52:07;18.92;;;9.40;;
75358;SDS011;64046;51.978;5.934;2023-11-21T14:54:48;12.95;;;7.53;;
75358;SDS011;64046;51.978;5.934;2023-11-21T14:57:30;16.15;;;9.48;;
75358;SDS011;64046;51.978;5.934;2023-11-21T15:00:02;17.50;;;9.75;;
75358;SDS011;64046;51.978;5.934;2023-11-21T15:02:53;14.88;;;9.20;;
75358;SDS011;64046;51.978;5.934;2023-11-21T15:05:20;18.00;;;11.68;;
75358;SDS011;64046;51.978;5.934;2023-11-21T15:07:53;19.58;;;12.32;;
75358;SDS011;64046;51.978;5.934;2023-11-21T15:10:24;19.83;;;12.02;;